createdAt,value
2022-12-08T00:01:26.619Z,67272.16
2022-12-08T00:03:55.408Z,67275.31
2022-12-08T00:06:44.691Z,67277.56
2022-12-08T00:09:25.756Z,67276.66
2022-12-08T00:11:59.933Z,67274.75
2022-12-08T00:14:38.425Z,67270.25
2022-12-08T00:17:07.670Z,67270.03
2022-12-08T00:19:35.117Z,67269.13
2022-12-08T00:22:03.338Z,67267.09
2022-12-08T00:24:32.744Z,67264.28
2022-12-08T00:26:59.886Z,67266.34
2022-12-08T00:29:27.468Z,67266.66
2022-12-08T00:31:54.878Z,67261.81
2022-12-08T00:34:22.272Z,67261.25
2022-12-08T00:36:49.419Z,67260.91
2022-12-08T00:39:17.662Z,67265.00
2022-12-08T00:42:03.951Z,67264.06
2022-12-08T00:44:31.198Z,67258.31
2022-12-08T00:46:58.417Z,67263.50
2022-12-08T00:49:25.691Z,67259.94
2022-12-08T00:51:52.928Z,67249.09
2022-12-08T00:54:22.958Z,67252.25
2022-12-08T00:56:50.637Z,67254.50
2022-12-08T00:59:19.018Z,67258.25
2022-12-08T01:01:47.771Z,67258.03
2022-12-08T01:04:17.363Z,67256.41
2022-12-08T01:06:45.017Z,67265.00
2022-12-08T01:09:14.554Z,67257.88
2022-12-08T01:11:42.298Z,67250.22
2022-12-08T01:14:09.498Z,67247.41
2022-12-08T01:16:37.193Z,67253.41
2022-12-08T01:19:04.696Z,67251.91
2022-12-08T01:21:32.698Z,67252.25
2022-12-08T01:24:00.855Z,67249.47
2022-12-08T01:26:28.000Z,67247.41
2022-12-08T01:28:55.302Z,67242.56
2022-12-08T01:31:23.389Z,67259.94
2022-12-08T01:33:51.030Z,67252.13
2022-12-08T01:36:29.962Z,67255.44
2022-12-08T01:38:59.492Z,67257.69
2022-12-08T01:41:29.588Z,67258.44
2022-12-08T01:44:02.495Z,67244.94
2022-12-08T01:46:32.810Z,67250.56
2022-12-08T01:49:09.059Z,67254.31
2022-12-08T01:51:43.745Z,67236.31
2022-12-08T01:54:12.637Z,67226.41
2022-12-08T01:56:46.911Z,67232.03
2022-12-08T01:59:14.472Z,67244.03
2022-12-08T02:01:41.772Z,67237.06
2022-12-08T02:04:10.599Z,67220.44
2022-12-08T02:06:41.956Z,67219.09
2022-12-08T02:09:09.887Z,67227.53
2022-12-08T02:11:37.249Z,67220.44
2022-12-08T02:14:08.727Z,67233.38
2022-12-08T02:17:07.778Z,67226.25
2022-12-08T02:20:09.170Z,67222.06
2022-12-08T02:22:51.185Z,67217.97
2022-12-08T02:25:44.747Z,67206.59
2022-12-08T02:28:43.329Z,67216.63
2022-12-08T02:31:25.580Z,67222.63
2022-12-08T02:34:07.910Z,67210.09
2022-12-08T02:36:57.383Z,67208.41
2022-12-08T02:39:44.380Z,67222.25
2022-12-08T02:42:47.074Z,67229.00
2022-12-08T02:45:22.764Z,67239.34
2022-12-08T02:47:51.074Z,67241.59
2022-12-08T02:50:18.937Z,67257.31
2022-12-08T02:52:46.822Z,67242.91
2022-12-08T02:55:28.079Z,67246.63
2022-12-08T02:58:29.144Z,67251.72
2022-12-08T03:01:14.849Z,67245.16
2022-12-08T03:04:17.993Z,67241.59
2022-12-08T03:07:13.646Z,67254.88
2022-12-08T03:10:24.720Z,67252.25
2022-12-08T03:13:08.269Z,67248.13
2022-12-08T03:15:38.038Z,67246.44
2022-12-08T03:18:09.642Z,67235.38
2022-12-08T03:20:39.959Z,67242.16
2022-12-08T03:23:10.932Z,67236.75
2022-12-08T03:25:48.662Z,67241.38
2022-12-08T03:28:15.817Z,67241.38
2022-12-08T03:30:47.485Z,67239.00
2022-12-08T03:33:27.739Z,67240.47
2022-12-08T03:35:55.728Z,67230.91
2022-12-08T03:38:23.216Z,67255.63
2022-12-08T03:41:10.474Z,67267.09
2022-12-08T03:43:37.709Z,67274.19
2022-12-08T03:46:05.039Z,67268.22
2022-12-08T03:48:32.253Z,67271.19
2022-12-08T03:50:59.462Z,67273.63
2022-12-08T03:53:26.933Z,67276.81
2022-12-08T03:55:54.497Z,67275.53
2022-12-08T03:58:21.687Z,67284.50
2022-12-08T04:00:48.906Z,67294.44
2022-12-08T04:03:16.150Z,67282.63
2022-12-08T04:05:43.456Z,67270.09
2022-12-08T04:08:10.709Z,67282.06
2022-12-08T04:10:37.946Z,67288.81
2022-12-08T04:13:05.170Z,67270.47
2022-12-08T04:15:32.379Z,67270.69
2022-12-08T04:17:59.708Z,67286.56
2022-12-08T04:20:26.889Z,67280.03
2022-12-08T04:22:54.055Z,67282.84
2022-12-08T04:25:21.264Z,67281.16
2022-12-08T04:27:48.474Z,67269.34
2022-12-08T04:30:15.728Z,67263.72
2022-12-08T04:32:47.180Z,67272.72
2022-12-08T04:35:14.934Z,67267.31
2022-12-08T04:37:43.363Z,67279.41
2022-12-08T04:40:12.023Z,67264.63
2022-12-08T04:42:39.418Z,67259.78
2022-12-08T04:45:06.975Z,67261.81
2022-12-08T04:47:34.583Z,67264.06
2022-12-08T04:50:02.245Z,67264.06
2022-12-08T04:52:30.125Z,67263.94
2022-12-08T04:54:57.568Z,67264.41
2022-12-08T04:57:24.870Z,67261.63
2022-12-08T04:59:52.305Z,67254.50
2022-12-08T05:02:19.653Z,67248.31
2022-12-08T05:04:47.625Z,67240.31
2022-12-08T05:07:14.733Z,67246.31
2022-12-08T05:09:41.827Z,67249.66
2022-12-08T05:12:09.139Z,67247.22
2022-12-08T05:14:36.466Z,67254.16
2022-12-08T05:17:09.313Z,67254.72
2022-12-08T05:19:37.207Z,67259.56
2022-12-08T05:22:04.482Z,67271.72
2022-12-08T05:24:31.664Z,67268.50
2022-12-08T05:26:58.888Z,67256.78
2022-12-08T05:29:26.288Z,67253.94
2022-12-08T05:31:53.663Z,67251.16
2022-12-08T05:34:21.107Z,67253.41
2022-12-08T05:36:48.346Z,67241.00
2022-12-08T05:39:16.018Z,67228.84
2022-12-08T05:41:43.203Z,67225.63
2022-12-08T05:44:10.555Z,67237.44
2022-12-08T05:46:37.813Z,67245.16
2022-12-08T05:49:05.185Z,67263.31
2022-12-08T05:51:32.945Z,67253.75
2022-12-08T05:54:00.231Z,67254.88
2022-12-08T05:56:27.512Z,67240.81
2022-12-08T05:58:54.743Z,67236.75
2022-12-08T06:01:30.575Z,67239.00
2022-12-08T06:04:00.073Z,67231.25
2022-12-08T06:06:27.882Z,67228.78
2022-12-08T06:08:55.181Z,67228.09
2022-12-08T06:11:25.464Z,67223.94
2022-12-08T06:13:52.992Z,67218.31
2022-12-08T06:16:20.532Z,67222.47
2022-12-08T06:18:47.831Z,67237.25
2022-12-08T06:21:16.548Z,67234.69
2022-12-08T06:23:44.472Z,67253.53
2022-12-08T06:26:14.927Z,67257.53
2022-12-08T06:28:43.066Z,67271.97
2022-12-08T06:31:11.644Z,67267.25
2022-12-08T06:33:38.873Z,67255.28
2022-12-08T06:36:06.916Z,67270.25
2022-12-08T06:38:36.353Z,67270.47
2022-12-08T06:41:07.288Z,67279.81
2022-12-08T06:43:34.679Z,67272.72
2022-12-08T06:46:04.799Z,67267.66
2022-12-08T06:48:32.142Z,67262.94
2022-12-08T06:51:17.016Z,67259.22
2022-12-08T06:53:45.618Z,67271.97
2022-12-08T06:56:15.814Z,67273.84
2022-12-08T06:58:46.196Z,67274.41
2022-12-08T07:01:17.772Z,67282.06
2022-12-08T07:03:45.091Z,67285.78
2022-12-08T07:06:19.680Z,67297.47
2022-12-08T07:08:46.941Z,67301.75
2022-12-08T07:11:20.962Z,67303.56
2022-12-08T07:13:49.398Z,67295.56
2022-12-08T07:16:16.802Z,67279.25
2022-12-08T07:18:44.221Z,67274.75
2022-12-08T07:21:13.350Z,67273.44
2022-12-08T07:23:41.234Z,67273.06
2022-12-08T07:26:11.437Z,67266.66
2022-12-08T07:28:40.206Z,67279.25
2022-12-08T07:31:15.874Z,67290.50
2022-12-08T07:33:43.390Z,67291.28
2022-12-08T07:36:10.557Z,67292.75
2022-12-08T07:38:37.799Z,67281.50
2022-12-08T07:41:05.108Z,67273.47
2022-12-08T07:43:32.350Z,67262.59
2022-12-08T07:45:59.963Z,67261.25
2022-12-08T07:48:28.190Z,67236.69
2022-12-08T07:51:02.700Z,67259.78
2022-12-08T07:53:30.505Z,67265.00
2022-12-08T07:55:57.869Z,67271.38
2022-12-08T07:58:25.990Z,67271.59
2022-12-08T08:00:53.577Z,67269.91
2022-12-08T08:03:22.085Z,67279.81
2022-12-08T08:05:50.159Z,67278.69
2022-12-08T08:08:18.328Z,67277.00
2022-12-08T08:10:47.289Z,67284.47
2022-12-08T08:13:14.681Z,67277.97
2022-12-08T08:15:41.999Z,67288.81
2022-12-08T08:18:09.375Z,67298.72
2022-12-08T08:20:36.595Z,67290.13
2022-12-08T08:23:03.869Z,67294.06
2022-12-08T08:25:31.092Z,67297.47
2022-12-08T08:27:58.460Z,67301.97
2022-12-08T08:30:25.864Z,67316.56
2022-12-08T08:32:53.327Z,67330.78
2022-12-08T08:35:20.520Z,67362.34
2022-12-08T08:37:49.364Z,67382.75
2022-12-08T08:40:17.969Z,67378.81
2022-12-08T08:42:45.384Z,67384.31
2022-12-08T08:45:12.619Z,67376.56
2022-12-08T08:47:39.820Z,67369.25
2022-12-08T08:50:07.899Z,67369.06
2022-12-08T08:52:35.331Z,67388.59
2022-12-08T08:55:02.483Z,67382.06
2022-12-08T08:57:29.784Z,67396.84
2022-12-08T08:59:57.145Z,67401.91
2022-12-08T09:02:24.558Z,67429.50
2022-12-08T09:04:52.377Z,67452.41
2022-12-08T09:07:21.061Z,67481.63
2022-12-08T09:09:48.496Z,67521.28
2022-12-08T09:12:15.644Z,67535.00
2022-12-08T09:14:42.856Z,67598.13
2022-12-08T09:17:10.273Z,67612.22
2022-12-08T09:19:37.638Z,67637.59
2022-12-08T09:22:05.676Z,67643.78
2022-12-08T09:24:32.880Z,67678.78
2022-12-08T09:27:00.194Z,67736.53
2022-12-08T09:29:32.548Z,67720.16
2022-12-08T09:32:02.751Z,67763.06
2022-12-08T09:34:31.311Z,67820.44
2022-12-08T09:36:58.500Z,67827.22
2022-12-08T09:39:25.719Z,67866.00
2022-12-08T09:42:00.742Z,67812.53
2022-12-08T09:44:50.236Z,67756.44
2022-12-08T09:47:36.271Z,67714.69
2022-12-08T09:50:07.801Z,67732.94
2022-12-08T09:52:41.080Z,67729.91
2022-12-08T09:55:32.272Z,67686.69
2022-12-08T09:58:03.242Z,67698.31
2022-12-08T10:00:30.943Z,67701.34
2022-12-08T10:02:59.991Z,67716.00
2022-12-08T10:05:30.047Z,67728.41
2022-12-08T10:08:06.211Z,67737.09
2022-12-08T10:10:46.195Z,67714.69
2022-12-08T10:13:38.799Z,67597.00
2022-12-08T10:16:28.152Z,67611.88
2022-12-08T10:19:18.681Z,67593.63
2022-12-08T10:21:46.394Z,67577.06
2022-12-08T10:24:27.045Z,67533.47
2022-12-08T10:26:55.909Z,67545.16
2022-12-08T10:29:23.409Z,67547.41
2022-12-08T10:31:50.773Z,67565.03
2022-12-08T10:34:24.222Z,67557.75
2022-12-08T10:36:57.183Z,67551.16
2022-12-08T10:39:38.152Z,67557.91
2022-12-08T10:42:14.278Z,67554.31
2022-12-08T10:45:08.833Z,67549.25
2022-12-08T10:47:42.511Z,67525.44
2022-12-08T10:50:27.923Z,67553.03
2022-12-08T10:53:01.777Z,67605.25
2022-12-08T10:55:39.047Z,67669.19
2022-12-08T10:58:06.298Z,67701.50
2022-12-08T11:00:34.595Z,67731.41
2022-12-08T11:03:04.364Z,67720.31
2022-12-08T11:05:36.387Z,67740.25
2022-12-08T11:08:06.035Z,67725.50
2022-12-08T11:10:43.323Z,67728.22
2022-12-08T11:13:26.877Z,67688.94
2022-12-08T11:15:55.692Z,67666.16
2022-12-08T11:18:39.238Z,67652.63
2022-12-08T11:21:13.036Z,67660.31
2022-12-08T11:23:42.091Z,67642.31
2022-12-08T11:26:31.685Z,67649.81
2022-12-08T11:28:59.183Z,67683.84
2022-12-08T11:31:43.373Z,67700.00
2022-12-08T11:34:20.109Z,67704.91
2022-12-08T11:36:47.984Z,67705.84
2022-12-08T11:39:15.417Z,67684.06
2022-12-08T11:41:46.058Z,67682.72
2022-12-08T11:44:38.431Z,67674.63
2022-12-08T11:47:15.134Z,67667.50
2022-12-08T11:49:43.337Z,67679.91
2022-12-08T11:52:30.798Z,67637.50
2022-12-08T11:55:49.681Z,67616.91
2022-12-08T11:58:24.043Z,67603.19
2022-12-08T12:00:51.300Z,67594.53
2022-12-08T12:03:33.123Z,67627.25
2022-12-08T12:06:23.903Z,67626.13
2022-12-08T12:09:16.398Z,67660.72
2022-12-08T12:12:19.308Z,67678.56
2022-12-08T12:15:18.290Z,67677.09
2022-12-08T12:17:52.562Z,67651.50
2022-12-08T12:20:22.912Z,67635.34
2022-12-08T12:22:56.568Z,67663.69
2022-12-08T12:25:26.453Z,67689.84
2022-12-08T12:27:58.917Z,67685.13
2022-12-08T12:30:28.951Z,67652.63
2022-12-08T12:33:01.533Z,67648.31
2022-12-08T12:35:34.580Z,67626.78
2022-12-08T12:38:46.745Z,67676.09
2022-12-08T12:41:15.387Z,67690.03
2022-12-08T12:44:09.153Z,67694.00
2022-12-08T12:46:39.947Z,67709.44
2022-12-08T12:49:38.124Z,67679.34
2022-12-08T12:52:31.913Z,67656.38
2022-12-08T12:54:59.134Z,67638.53
2022-12-08T12:57:36.513Z,67626.13
2022-12-08T13:00:03.829Z,67595.88
2022-12-08T13:02:38.423Z,67583.28
2022-12-08T13:05:11.353Z,67594.34
2022-12-08T13:08:16.635Z,67582.72
2022-12-08T13:11:01.136Z,67578.41
2022-12-08T13:13:29.016Z,67582.50
2022-12-08T13:15:59.131Z,67580.09
2022-12-08T13:18:34.102Z,67574.44
2022-12-08T13:21:06.094Z,67563.75
2022-12-08T13:23:46.651Z,67563.34
2022-12-08T13:26:21.468Z,67561.13
2022-12-08T13:29:04.050Z,67582.16
2022-12-08T13:31:50.638Z,67593.97
2022-12-08T13:34:33.465Z,67585.16
2022-12-08T13:37:15.930Z,67576.69
2022-12-08T13:39:58.600Z,67583.28
2022-12-08T13:42:51.501Z,67578.19
2022-12-08T13:45:59.027Z,67566.56
2022-12-08T13:48:30.151Z,67574.81
2022-12-08T13:55:49.532Z,67570.31
2022-12-08T13:57:29.177Z,67568.63
2022-12-08T14:00:01.435Z,67554.53
2022-12-08T14:02:46.995Z,67534.47
2022-12-08T14:05:19.036Z,67520.53
2022-12-08T14:07:49.368Z,67514.31
2022-12-08T14:10:22.198Z,67519.41
2022-12-08T14:12:55.915Z,67507.19
2022-12-08T14:15:25.517Z,67494.81
2022-12-08T14:17:56.041Z,67512.28
2022-12-08T14:20:29.139Z,67525.44
2022-12-08T14:22:59.675Z,67536.50
2022-12-08T14:25:28.931Z,67536.72
2022-12-08T14:28:02.056Z,67531.44
2022-12-08T14:30:33.304Z,67542.50
2022-12-08T14:33:03.802Z,67525.22
2022-12-08T14:35:33.172Z,67536.50
2022-12-08T14:38:01.469Z,67522.78
2022-12-08T14:40:43.248Z,67517.91
2022-12-08T14:43:10.614Z,67512.84
2022-12-08T14:45:41.133Z,67513.41
2022-12-08T14:48:39.209Z,67497.44
2022-12-08T14:51:26.270Z,67475.31
2022-12-08T14:54:00.312Z,67489.75
2022-12-08T14:56:46.543Z,67484.66
2022-12-08T14:59:30.332Z,67471.16
2022-12-08T15:02:15.769Z,67441.50
2022-12-08T15:04:46.123Z,67443.94
2022-12-08T15:07:21.649Z,67442.59
2022-12-08T15:10:06.046Z,67422.72
2022-12-08T15:12:34.320Z,67425.16
2022-12-08T15:15:15.459Z,67410.69
2022-12-08T15:17:51.670Z,67407.13
2022-12-08T15:20:39.336Z,67399.50
2022-12-08T15:23:19.296Z,67388.38
2022-12-08T15:25:46.677Z,67366.44
2022-12-08T15:28:15.801Z,67362.66
2022-12-08T15:30:43.192Z,67364.75
2022-12-08T15:33:10.512Z,67362.50
2022-12-08T15:35:40.978Z,67365.88
2022-12-08T15:38:23.742Z,67344.09
2022-12-08T15:40:55.413Z,67352.94
2022-12-08T15:43:23.068Z,67357.25
2022-12-08T15:45:59.025Z,67364.53
2022-12-08T15:48:31.094Z,67363.84
2022-12-08T15:50:58.723Z,67362.50
2022-12-08T15:53:26.215Z,67346.19
2022-12-08T15:56:25.633Z,67348.44
2022-12-08T15:58:57.696Z,67364.75
2022-12-08T16:01:26.439Z,67373.78
2022-12-08T16:07:19.845Z,67376.03
2022-12-08T16:09:36.298Z,67359.31
2022-12-08T16:12:23.687Z,67363.06
2022-12-08T16:17:40.382Z,67354.63
2022-12-08T16:20:12.538Z,67358.78
2022-12-08T16:23:03.734Z,67369.25
2022-12-08T16:25:36.397Z,67387.28
2022-12-08T16:28:45.354Z,67374.31
2022-12-08T16:31:01.268Z,67379.03
2022-12-08T16:33:28.520Z,67357.44
2022-12-08T16:35:55.889Z,67359.13
2022-12-08T16:38:23.158Z,67370.38
2022-12-08T16:41:08.997Z,67391.41
2022-12-08T16:43:36.608Z,67395.72
2022-12-08T16:46:04.187Z,67389.72
2022-12-08T16:48:31.629Z,67389.72
2022-12-08T16:50:58.836Z,67397.75
2022-12-08T16:53:26.230Z,67390.84
2022-12-08T16:55:53.455Z,67396.25
2022-12-08T16:58:20.641Z,67397.97
2022-12-08T17:00:48.174Z,67398.19
2022-12-08T17:03:17.039Z,67400.22
2022-12-08T17:05:44.423Z,67399.66
2022-12-08T17:08:13.249Z,67391.41
2022-12-08T17:10:41.804Z,67395.16
2022-12-08T17:13:09.548Z,67399.09
2022-12-08T17:15:36.803Z,67391.00
2022-12-08T17:18:04.152Z,67372.63
2022-12-08T17:20:31.404Z,67404.31
2022-12-08T17:22:58.909Z,67391.97
2022-12-08T17:25:27.332Z,67393.66
2022-12-08T17:27:56.322Z,67377.72
2022-12-08T17:30:23.677Z,67378.81
2022-12-08T17:32:52.790Z,67393.47
2022-12-08T17:35:20.289Z,67389.16
2022-12-08T17:37:47.572Z,67391.41
2022-12-08T17:40:15.139Z,67405.63
2022-12-08T17:42:42.473Z,67392.53
2022-12-08T17:45:10.345Z,67383.16
2022-12-08T17:47:37.783Z,67394.56
2022-12-08T17:50:06.750Z,67401.53
2022-12-08T17:52:34.262Z,67389.34
2022-12-08T17:55:01.536Z,67390.84
2022-12-08T17:57:28.680Z,67391.22
2022-12-08T17:59:56.025Z,67400.78
2022-12-08T18:02:23.466Z,67389.53
2022-12-08T18:04:50.734Z,67382.41
2022-12-08T18:07:18.042Z,67385.00
2022-12-08T18:09:45.325Z,67377.50
2022-12-08T18:12:12.542Z,67375.44
2022-12-08T18:14:39.896Z,67371.84
2022-12-08T18:17:12.476Z,67376.22
2022-12-08T18:19:39.768Z,67389.53
2022-12-08T18:22:06.934Z,67387.47
2022-12-08T18:24:34.209Z,67383.34
2022-12-08T18:27:01.608Z,67395.72
2022-12-08T18:29:28.794Z,67395.50
2022-12-08T18:31:56.092Z,67394.03
2022-12-08T18:34:24.539Z,67396.84
2022-12-08T18:36:52.794Z,67396.25
2022-12-08T18:39:29.370Z,67395.72
2022-12-08T18:41:58.826Z,67392.91
2022-12-08T18:44:26.129Z,67386.91
2022-12-08T18:46:53.274Z,67395.91
2022-12-08T18:49:20.789Z,67396.06
2022-12-08T18:51:48.242Z,67397.19
2022-12-08T18:54:15.455Z,67394.38
2022-12-08T18:56:42.588Z,67381.66
2022-12-08T18:59:12.029Z,67379.03
2022-12-08T19:01:40.662Z,67381.84
2022-12-08T19:04:27.975Z,67390.44
2022-12-08T19:06:56.924Z,67385.59
2022-12-08T19:09:26.659Z,67382.63
2022-12-08T19:11:53.937Z,67380.31
2022-12-08T19:14:27.824Z,67385.78
2022-12-08T19:16:58.862Z,67398.50
2022-12-08T19:19:27.436Z,67403.38
2022-12-08T19:21:54.874Z,67398.88
2022-12-08T19:24:22.276Z,67395.91
2022-12-08T19:26:49.948Z,67401.34
2022-12-08T19:29:17.597Z,67392.91
2022-12-08T19:31:45.609Z,67402.13
2022-12-08T19:34:14.329Z,67408.31
2022-12-08T19:36:43.075Z,67403.94
2022-12-08T19:39:35.562Z,67416.31
2022-12-08T19:42:21.731Z,67416.72
2022-12-08T19:44:54.826Z,67414.84
2022-12-08T19:47:27.144Z,67391.22
2022-12-08T19:50:15.456Z,67396.84
2022-12-08T19:52:43.853Z,67393.47
2022-12-08T19:55:11.839Z,67401.34
2022-12-08T19:57:44.922Z,67392.91
2022-12-08T20:00:12.989Z,67404.38
2022-12-08T20:02:40.187Z,67389.53
2022-12-08T20:05:08.696Z,67386.00
2022-12-08T20:07:39.837Z,67387.84
2022-12-08T20:10:28.911Z,67387.63
2022-12-08T20:13:16.628Z,67390.84
2022-12-08T20:15:44.656Z,67378.25
2022-12-08T20:18:13.789Z,67369.81
2022-12-08T20:20:41.966Z,67368.13
2022-12-08T20:23:09.591Z,67359.69
2022-12-08T20:25:42.436Z,67354.63
2022-12-08T20:28:10.460Z,67350.69
2022-12-08T20:30:42.727Z,67350.13
2022-12-08T20:33:13.272Z,67344.72
2022-12-08T20:35:40.911Z,67339.63
2022-12-08T20:38:08.249Z,67327.28
2022-12-08T20:40:35.459Z,67323.47
2022-12-08T20:43:02.643Z,67303.44
2022-12-08T20:45:29.799Z,67297.25
2022-12-08T20:47:56.963Z,67292.53
2022-12-08T20:50:24.232Z,67290.84
2022-12-08T20:52:51.743Z,67286.56
2022-12-08T20:55:19.092Z,67283.19
2022-12-08T20:57:46.302Z,67282.63
2022-12-08T21:00:13.954Z,67272.94
2022-12-08T21:02:47.729Z,67269.69
2022-12-08T21:05:17.187Z,67262.03
2022-12-08T21:07:44.524Z,67265.19
2022-12-08T21:10:12.365Z,67262.41
2022-12-08T21:12:39.639Z,67261.81
2022-12-08T21:15:07.769Z,67260.72
2022-12-08T21:17:35.261Z,67257.88
2022-12-08T21:20:02.793Z,67258.44
2022-12-08T21:22:30.026Z,67258.09
2022-12-08T21:24:57.255Z,67254.50
2022-12-08T21:27:24.385Z,67254.31
2022-12-08T21:29:51.693Z,67253.41
2022-12-08T21:32:18.879Z,67250.00
2022-12-08T21:34:46.220Z,67249.66
2022-12-08T21:37:13.376Z,67259.56
2022-12-08T21:39:40.533Z,67260.13
2022-12-08T21:42:32.291Z,67261.25
2022-12-08T21:45:01.337Z,67264.63
2022-12-08T21:47:28.629Z,67265.97
2022-12-08T21:49:57.026Z,67268.34
2022-12-08T21:52:24.225Z,67261.81
2022-12-08T21:54:51.477Z,67259.56
2022-12-08T21:57:18.682Z,67258.09
2022-12-08T21:59:45.934Z,67257.31
2022-12-08T22:02:19.421Z,67252.47
2022-12-08T22:04:50.020Z,67254.66
2022-12-08T22:07:17.447Z,67225.47
2022-12-08T22:09:45.159Z,67251.72
2022-12-08T22:12:12.360Z,67260.34
2022-12-08T22:14:40.409Z,67251.34
2022-12-08T22:17:07.950Z,67248.13
2022-12-08T22:19:35.496Z,67237.06
2022-12-08T22:22:03.564Z,67238.78
2022-12-08T22:24:36.408Z,67234.84
2022-12-08T22:27:04.334Z,67234.47
2022-12-08T22:29:32.330Z,67235.97
2022-12-08T22:32:02.618Z,67237.06
2022-12-08T22:34:30.050Z,67234.47
2022-12-08T22:36:57.608Z,67244.75
2022-12-08T22:39:24.996Z,67236.94
2022-12-08T22:41:52.608Z,67240.47
2022-12-08T22:44:20.147Z,67245.31
2022-12-08T22:46:47.486Z,67246.63
2022-12-08T22:49:15.202Z,67240.09
2022-12-08T22:51:42.723Z,67243.47
2022-12-08T22:54:12.014Z,67247.78
2022-12-08T22:56:39.289Z,67245.38
2022-12-08T22:59:06.655Z,67252.25
2022-12-08T23:01:34.126Z,67258.44
2022-12-08T23:04:02.120Z,67258.09
2022-12-08T23:06:30.318Z,67260.13
2022-12-08T23:09:03.160Z,67255.09
2022-12-08T23:11:35.898Z,67256.78
2022-12-08T23:14:03.423Z,67259.00
2022-12-08T23:16:30.826Z,67252.06
2022-12-08T23:18:59.169Z,67253.53
2022-12-08T23:21:26.479Z,67250.56
2022-12-08T23:23:53.656Z,67253.75
2022-12-08T23:26:22.951Z,67248.53
2022-12-08T23:28:50.264Z,67246.63
2022-12-08T23:31:18.275Z,67244.94
2022-12-08T23:33:45.810Z,67239.53
2022-12-08T23:36:14.283Z,67245.53
2022-12-08T23:38:42.732Z,67246.09
2022-12-08T23:41:12.464Z,67239.34
2022-12-08T23:43:48.506Z,67237.84
2022-12-08T23:46:17.820Z,67243.84
2022-12-08T23:48:46.027Z,67238.00
2022-12-08T23:51:14.055Z,67237.66
2022-12-08T23:53:41.656Z,67245.31
2022-12-08T23:56:11.702Z,67242.34
2022-12-08T23:58:40.195Z,67239.75
